createdAt,value
2019-03-06T07:27:42.151Z,15.83
2019-03-06T07:30:15.750Z,16.00
2019-03-06T07:32:50.437Z,15.53
2019-03-06T07:37:02.811Z,15.10
2019-03-06T07:39:36.688Z,18.40
2019-03-06T07:42:11.123Z,16.93
2019-03-06T07:44:59.302Z,17.87
2019-03-06T07:47:37.068Z,13.87
2019-03-06T07:50:20.894Z,13.43
2019-03-06T07:53:05.720Z,14.10
2019-03-06T07:55:40.248Z,12.40
2019-03-06T07:59:15.370Z,14.20
2019-03-06T08:01:49.462Z,12.40
2019-03-06T08:04:18.378Z,10.60
2019-03-06T08:06:50.711Z,10.57
2019-03-06T08:09:19.905Z,10.70
2019-03-06T08:12:01.484Z,9.90
2019-03-06T08:14:36.092Z,10.50
2019-03-06T08:17:09.310Z,11.03
2019-03-06T08:19:57.668Z,9.03
2019-03-06T08:22:30.889Z,9.33
2019-03-06T08:25:04.386Z,9.50
2019-03-06T08:27:33.508Z,9.37
2019-03-06T08:30:02.722Z,15.27
2019-03-06T08:32:33.493Z,9.90
2019-03-06T08:35:02.418Z,9.53
2019-03-06T08:37:31.586Z,9.33
2019-03-06T08:40:01.050Z,8.87
2019-03-06T08:42:30.551Z,9.00
2019-03-06T08:44:59.547Z,9.40
2019-03-06T08:47:35.130Z,9.63
2019-03-06T08:50:11.162Z,9.57
2019-03-06T08:52:47.702Z,11.80
2019-03-06T08:55:22.150Z,9.70
2019-03-06T08:58:27.649Z,9.13
2019-03-06T09:01:10.092Z,9.60
2019-03-06T09:03:46.174Z,12.57
2019-03-06T09:06:25.233Z,10.10
2019-03-06T09:09:19.698Z,11.00
2019-03-06T09:11:56.872Z,11.83
2019-03-06T09:14:33.436Z,8.25
2019-03-06T09:17:06.770Z,7.85
2019-03-06T09:19:42.187Z,8.63
2019-03-06T09:22:30.658Z,8.20
2019-03-06T09:25:07.716Z,7.80
2019-03-06T09:27:42.026Z,9.70
2019-03-06T09:30:31.702Z,8.87
2019-03-06T09:33:09.913Z,8.23
2019-03-06T09:35:46.176Z,7.67
2019-03-06T09:38:55.798Z,10.17
2019-03-06T09:41:29.928Z,11.63
2019-03-06T09:44:05.244Z,8.70
2019-03-06T09:46:38.567Z,7.95
2019-03-06T09:49:17.799Z,7.63
2019-03-06T09:51:56.028Z,6.90
2019-03-06T09:54:29.275Z,6.97
2019-03-06T09:57:03.701Z,8.13
2019-03-06T09:59:37.198Z,7.37
2019-03-06T10:04:14.611Z,7.53
2019-03-06T10:06:51.826Z,7.83
2019-03-06T10:13:20.128Z,7.25
2019-03-06T10:15:53.388Z,8.15
2019-03-06T10:18:27.685Z,8.73
2019-03-06T10:20:56.626Z,7.12
2019-03-06T10:23:25.682Z,7.03
2019-03-06T10:25:54.786Z,8.63
2019-03-06T10:31:01.843Z,6.30
2019-03-06T10:33:21.576Z,7.17
2019-03-06T10:35:50.572Z,9.03
2019-03-06T10:38:19.510Z,8.10
2019-03-06T10:40:48.579Z,7.40
2019-03-06T10:43:17.524Z,7.62
2019-03-06T10:45:46.618Z,6.40
2019-03-06T10:48:15.598Z,6.60
2019-03-06T10:50:44.686Z,6.17
2019-03-06T10:53:13.639Z,7.42
2019-03-06T10:55:42.595Z,6.28
2019-03-06T10:58:11.530Z,6.47
2019-03-06T11:00:44.778Z,7.53
2019-03-06T11:03:13.743Z,7.20
2019-03-06T11:05:42.738Z,6.17
2019-03-06T11:08:11.657Z,6.30
2019-03-06T11:10:40.622Z,7.03
2019-03-06T11:13:10.900Z,9.17
2019-03-06T11:15:40.203Z,7.40
2019-03-06T11:18:09.398Z,8.20
2019-03-06T11:20:38.376Z,5.93
2019-03-06T11:23:07.618Z,6.43
2019-03-06T11:25:37.258Z,6.93
2019-03-06T11:28:08.252Z,9.73
2019-03-06T11:30:41.938Z,7.07
2019-03-06T11:33:11.184Z,6.87
2019-03-06T11:35:40.162Z,6.90
2019-03-06T11:38:09.141Z,6.87
2019-03-06T11:40:38.306Z,7.53
2019-03-06T11:43:07.458Z,6.90
2019-03-06T11:45:37.701Z,7.20
2019-03-06T11:48:06.881Z,6.37
2019-03-06T11:50:40.787Z,6.40
2019-03-06T11:53:05.269Z,6.07
2019-03-06T11:55:34.289Z,6.00
2019-03-06T11:58:03.254Z,6.53
2019-03-06T12:00:36.740Z,5.70
2019-03-06T12:03:06.054Z,6.30
2019-03-06T12:05:35.933Z,5.63
2019-03-06T12:08:07.452Z,5.90
2019-03-06T12:10:36.515Z,6.23
2019-03-06T12:13:08.574Z,6.30
2019-03-06T12:15:37.601Z,6.60
2019-03-06T12:18:13.099Z,5.60
2019-03-06T12:20:42.156Z,5.07
2019-03-06T12:23:11.130Z,6.28
2019-03-06T12:25:40.395Z,5.07
2019-03-06T12:28:10.200Z,4.70
2019-03-06T12:30:39.189Z,4.90
2019-03-06T12:33:08.307Z,5.00
2019-03-06T12:35:37.518Z,4.87
2019-03-06T12:38:06.701Z,4.60
2019-03-06T12:40:35.808Z,5.93
2019-03-06T12:43:04.901Z,4.23
2019-03-06T12:45:34.105Z,5.77
2019-03-06T12:48:03.321Z,5.73
2019-03-06T12:50:32.491Z,4.20
2019-03-06T12:53:01.601Z,4.37
2019-03-06T12:55:30.677Z,4.53
2019-03-06T12:57:59.788Z,4.80
2019-03-06T13:00:28.769Z,4.47
2019-03-06T13:02:57.903Z,4.80
2019-03-06T13:05:27.108Z,6.37
2019-03-06T13:07:56.152Z,4.73
2019-03-06T13:10:25.436Z,4.77
2019-03-06T13:12:54.493Z,4.42
2019-03-06T13:15:23.823Z,4.23
2019-03-06T13:17:52.921Z,4.03
2019-03-06T13:20:22.024Z,2.90
2019-03-06T13:22:51.217Z,2.65
2019-03-06T13:25:20.815Z,3.10
2019-03-06T13:27:55.071Z,3.30
2019-03-06T13:30:19.221Z,3.95
2019-03-06T13:32:52.595Z,4.77
2019-03-06T13:35:21.742Z,3.75
2019-03-06T13:37:51.936Z,2.80
2019-03-06T13:40:22.182Z,3.03
2019-03-06T13:42:51.315Z,3.07
2019-03-06T13:45:20.320Z,4.10
2019-03-06T13:47:50.926Z,3.00
2019-03-06T13:50:18.434Z,2.87
2019-03-06T13:52:48.058Z,4.40
2019-03-06T13:55:17.172Z,2.87
2019-03-06T13:57:46.211Z,4.33
2019-03-06T14:00:16.062Z,3.93
2019-03-06T14:02:44.986Z,4.20
2019-03-06T14:05:14.738Z,4.90
2019-03-06T14:07:43.859Z,2.70
2019-03-06T14:10:13.096Z,4.67
2019-03-06T14:12:42.602Z,3.13
2019-03-06T14:15:11.865Z,3.93
2019-03-06T14:17:41.082Z,6.23
2019-03-06T14:20:10.078Z,3.70
2019-03-06T14:22:39.041Z,3.77
2019-03-06T14:25:14.696Z,4.17
2019-03-06T14:27:43.977Z,3.27
2019-03-06T14:30:14.148Z,8.93
2019-03-06T14:32:43.993Z,4.07
2019-03-06T14:35:14.244Z,4.03
2019-03-06T14:37:43.176Z,3.80
2019-03-06T14:40:17.575Z,4.80
2019-03-06T14:42:48.341Z,6.90
2019-03-06T14:45:16.044Z,3.37
2019-03-06T14:47:45.107Z,4.47
2019-03-06T14:50:14.303Z,5.13
2019-03-06T14:52:43.305Z,4.47
2019-03-06T14:55:12.392Z,4.27
2019-03-06T14:57:41.319Z,4.50
2019-03-06T15:00:11.642Z,4.10
2019-03-06T15:02:40.707Z,5.70
2019-03-06T15:05:10.021Z,3.80
2019-03-06T15:07:39.100Z,3.83
2019-03-06T15:10:10.758Z,4.67
2019-03-06T15:12:39.798Z,3.73
2019-03-06T15:15:10.897Z,3.50
2019-03-06T15:17:39.989Z,5.60
2019-03-06T15:20:11.756Z,3.93
2019-03-06T15:22:40.828Z,4.23
2019-03-06T15:25:12.559Z,5.33
2019-03-06T15:27:41.856Z,4.53
2019-03-06T15:30:11.817Z,6.57
2019-03-06T15:32:42.190Z,5.60
2019-03-06T15:35:10.557Z,6.57
2019-03-06T15:37:39.837Z,6.77
2019-03-06T15:40:13.432Z,5.33
2019-03-06T15:42:42.441Z,5.73
2019-03-06T15:45:12.100Z,5.53
2019-03-06T15:47:41.208Z,6.20
2019-03-06T15:50:11.446Z,5.50
2019-03-06T15:52:40.824Z,5.13
2019-03-06T15:55:09.984Z,5.33
2019-03-06T15:57:39.304Z,5.50
2019-03-06T16:00:13.615Z,5.60
2019-03-06T16:02:42.840Z,6.77
2019-03-06T16:05:15.130Z,7.07
2019-03-06T16:07:44.104Z,6.33
2019-03-06T16:10:13.112Z,6.17
2019-03-06T16:12:42.199Z,7.17
2019-03-06T16:15:12.474Z,5.57
2019-03-06T16:17:42.795Z,5.63
2019-03-06T16:20:14.345Z,7.47
2019-03-06T16:22:43.370Z,6.13
2019-03-06T16:25:12.627Z,6.67
2019-03-06T16:27:41.766Z,6.50
2019-03-06T16:30:12.981Z,6.60
2019-03-06T16:32:42.044Z,6.27
2019-03-06T16:35:11.253Z,7.03
2019-03-06T16:37:40.264Z,7.47
2019-03-06T16:40:13.456Z,7.80
2019-03-06T16:42:44.365Z,6.97
2019-03-06T16:45:13.491Z,7.37
2019-03-06T16:47:42.475Z,8.03
2019-03-06T16:50:15.896Z,8.07
2019-03-06T16:52:41.906Z,8.50
2019-03-06T16:55:11.267Z,8.57
2019-03-06T16:57:40.392Z,9.60
2019-03-06T17:00:17.742Z,7.63
2019-03-06T17:02:46.908Z,8.60
2019-03-06T17:05:17.029Z,8.03
2019-03-06T17:07:46.403Z,8.57
2019-03-06T17:10:15.448Z,7.97
2019-03-06T17:12:44.716Z,8.83
2019-03-06T17:15:13.971Z,8.90
2019-03-06T17:17:42.941Z,9.47
2019-03-06T17:20:13.190Z,8.67
2019-03-06T17:22:43.245Z,8.57
2019-03-06T17:25:12.334Z,9.27
2019-03-06T17:27:41.729Z,9.63
2019-03-06T17:30:13.812Z,9.10
2019-03-06T17:32:56.265Z,8.90
2019-03-06T17:35:25.645Z,9.37
2019-03-06T17:37:54.710Z,9.00
2019-03-06T17:40:24.424Z,9.03
2019-03-06T17:42:53.475Z,8.43
2019-03-06T17:45:22.444Z,10.20
2019-03-06T17:47:51.846Z,9.00
2019-03-06T17:50:27.121Z,9.60
2019-03-06T17:52:56.424Z,9.73
2019-03-06T17:55:25.480Z,8.83
2019-03-06T17:57:56.336Z,8.80
2019-03-06T18:00:29.670Z,8.70
2019-03-06T18:02:58.697Z,8.83
2019-03-06T18:05:34.108Z,9.03
2019-03-06T18:08:03.302Z,9.10
2019-03-06T18:10:32.447Z,8.53
2019-03-06T18:13:03.088Z,8.03
2019-03-06T18:15:32.238Z,9.57
2019-03-06T18:18:01.336Z,8.53
2019-03-06T18:20:30.839Z,8.53
2019-03-06T18:23:00.129Z,8.83
2019-03-06T18:25:29.785Z,8.47
2019-03-06T18:27:58.818Z,14.60
2019-03-06T18:30:28.144Z,8.27
2019-03-06T18:32:58.485Z,8.03
2019-03-06T18:35:29.900Z,8.40
2019-03-06T18:38:00.733Z,8.27
2019-03-06T18:40:30.481Z,7.97
2019-03-06T18:43:00.693Z,7.83
2019-03-06T18:45:30.188Z,8.00
2019-03-06T18:48:01.242Z,7.40
2019-03-06T18:50:30.314Z,8.10
2019-03-06T18:52:59.328Z,7.70
2019-03-06T18:55:28.563Z,7.57
2019-03-06T18:57:57.545Z,7.83
2019-03-06T19:00:26.510Z,7.93
2019-03-06T19:02:55.629Z,7.97
2019-03-06T19:05:24.740Z,7.30
2019-03-06T19:07:54.042Z,7.77
2019-03-06T19:10:23.167Z,7.23
2019-03-06T19:12:52.181Z,7.43
2019-03-06T19:15:21.278Z,7.27
2019-03-06T19:17:50.382Z,8.13
2019-03-06T19:20:19.389Z,7.63
2019-03-06T19:22:48.346Z,7.37
2019-03-06T19:25:17.512Z,7.03
2019-03-06T19:27:46.564Z,6.33
2019-03-06T19:30:17.924Z,7.50
2019-03-06T19:32:47.063Z,6.37
2019-03-06T19:35:17.077Z,6.40
2019-03-06T19:37:46.166Z,7.37
2019-03-06T19:40:15.614Z,6.73
2019-03-06T19:42:44.653Z,6.10
2019-03-06T19:45:15.035Z,6.10
2019-03-06T19:47:44.030Z,6.10
2019-03-06T19:50:15.402Z,5.40
2019-03-06T19:52:44.465Z,5.70
2019-03-06T19:55:14.188Z,5.57
2019-03-06T19:58:01.478Z,5.60
2019-03-06T20:00:30.502Z,5.57
2019-03-06T20:02:59.431Z,5.40
2019-03-06T20:05:31.723Z,5.17
2019-03-06T20:08:01.889Z,5.63
2019-03-06T20:10:31.293Z,5.13
2019-03-06T20:13:00.331Z,5.10
2019-03-06T20:15:29.373Z,5.80
2019-03-06T20:17:58.447Z,7.53
2019-03-06T20:20:27.506Z,4.93
2019-03-06T20:22:56.648Z,5.73
2019-03-06T20:25:25.849Z,5.50
2019-03-06T20:27:54.855Z,5.03
2019-03-06T20:30:23.974Z,5.37
2019-03-06T20:32:52.938Z,5.43
2019-03-06T20:35:22.606Z,5.43
2019-03-06T20:37:51.548Z,5.40
2019-03-06T20:40:20.599Z,5.83
2019-03-06T20:42:50.100Z,5.27
2019-03-06T20:45:19.154Z,5.13
2019-03-06T20:47:48.298Z,5.57
2019-03-06T20:50:17.488Z,5.03
2019-03-06T20:52:46.694Z,5.00
2019-03-06T20:55:15.760Z,5.17
2019-03-06T20:57:44.810Z,6.30
2019-03-06T21:00:15.646Z,5.93
2019-03-06T21:02:44.634Z,4.80
2019-03-06T21:05:13.697Z,5.13
2019-03-06T21:07:45.345Z,5.00
2019-03-06T21:10:14.670Z,4.67
2019-03-06T21:12:43.959Z,5.07
2019-03-06T21:15:14.544Z,5.03
2019-03-06T21:17:43.752Z,5.50
2019-03-06T21:20:15.444Z,4.80
2019-03-06T21:22:46.393Z,5.60
2019-03-06T21:25:18.448Z,4.67
2019-03-06T21:27:47.515Z,6.10
2019-03-06T21:30:22.736Z,4.90
2019-03-06T21:32:51.853Z,6.03
2019-03-06T21:35:20.950Z,6.73
2019-03-06T21:37:51.229Z,5.20
2019-03-06T21:40:20.275Z,4.80
2019-03-06T21:42:49.284Z,5.27
2019-03-06T21:45:18.317Z,4.80
2019-03-06T21:47:47.351Z,5.33
2019-03-06T21:50:16.534Z,4.90
2019-03-06T21:52:47.085Z,4.77
2019-03-06T21:55:16.379Z,6.20
2019-03-06T21:57:45.471Z,5.60
2019-03-06T22:00:20.395Z,4.80
2019-03-06T22:02:49.520Z,4.90
2019-03-06T22:05:19.639Z,5.67
2019-03-06T22:07:50.527Z,4.67
2019-03-06T22:10:17.972Z,4.70
2019-03-06T22:12:47.054Z,5.20
2019-03-06T22:15:16.090Z,6.07
2019-03-06T22:24:03.426Z,5.27
2019-03-06T22:26:32.618Z,5.50
2019-03-06T22:29:01.794Z,5.57
2019-03-06T22:31:31.046Z,5.60
2019-03-06T22:34:01.085Z,5.67
2019-03-06T22:36:34.369Z,7.37
2019-03-06T22:39:04.527Z,5.60
2019-03-06T22:41:35.918Z,5.87
2019-03-06T22:44:06.284Z,5.80
2019-03-06T22:46:35.942Z,5.70
2019-03-06T22:49:05.553Z,5.23
2019-03-06T22:51:34.982Z,5.33
2019-03-06T22:54:04.586Z,5.63
2019-03-06T22:56:35.017Z,5.40
2019-03-06T22:59:05.560Z,7.20
2019-03-06T23:01:38.179Z,6.37
2019-03-06T23:04:20.104Z,6.13
2019-03-06T23:07:10.223Z,9.63
2019-03-06T23:09:54.144Z,6.30
2019-03-06T23:12:27.562Z,6.17
2019-03-06T23:15:05.508Z,5.60
2019-03-06T23:17:39.248Z,8.03
2019-03-06T23:20:17.224Z,5.97
2019-03-06T23:22:53.980Z,6.57
2019-03-06T23:25:31.694Z,6.97
2019-03-06T23:28:02.552Z,6.33
2019-03-06T23:30:34.660Z,5.87
2019-03-06T23:33:05.520Z,6.80
2019-03-06T23:35:39.598Z,6.20
2019-03-06T23:38:16.669Z,6.37
2019-03-06T23:40:51.296Z,6.50
2019-03-06T23:43:32.894Z,6.27
2019-03-06T23:46:03.014Z,6.50
2019-03-06T23:48:39.334Z,6.03
2019-03-06T23:51:18.223Z,6.00
2019-03-06T23:53:49.690Z,6.90
2019-03-06T23:56:24.136Z,6.87
2019-03-06T23:58:56.840Z,6.87
